DWI7105 MMSM-MDPC
Flight info
| Callsign | DWI7105 |
|---|---|
| Flight time | N/A |
| Altitude | 35000 |
| Route | NOXOS1S NOXOS UT106 ANADU UT155 ELURA UT17 MEDOS UT20 ALPOM/N0453F370 UT20 CZA UJ9 CZM UL577 PAP UA890 ETBOD UL577 CDO UM597 GABIM DCT BEREL BEREL1W |
| Aircraft | B38M/M-SDE1FGHILORVWXY/HB1 |
Departure
| Time | 2026-04-23 18:20 |
|---|---|
| Airport | Felipe Ángeles International Airport (MMSM) |
Arrival
| Time | N/A |
|---|---|
| Airport | Punta Cana International Airport (MDPC) |
| Time | Latitude | Longitude | Altitude | Speed | Heading |
|---|---|---|---|---|---|
| 2026-04-23 18:02 | 19.73557 | -99.02088 | 7379 ft | 0 kts | 319° |
| 2026-04-23 18:07 | 19.73540 | -99.02073 | 7385 ft | 4 kts | 320° |
| 2026-04-23 18:07 | 19.73520 | -99.02055 | 7380 ft | 4 kts | 322° |
| 2026-04-23 18:07 | 19.73497 | -99.02040 | 7380 ft | 4 kts | 337° |
| 2026-04-23 18:08 | 19.73481 | -99.02035 | 7379 ft | 4 kts | 0° |
| 2026-04-23 18:08 | 19.73463 | -99.02042 | 7379 ft | 0 kts | 49° |
| 2026-04-23 18:10 | 19.73463 | -99.02041 | 7379 ft | 1 kts | 49° |
| 2026-04-23 18:10 | 19.73472 | -99.02030 | 7379 ft | 3 kts | 49° |
| 2026-04-23 18:11 | 19.73493 | -99.02006 | 7379 ft | 6 kts | 49° |
| 2026-04-23 18:11 | 19.73524 | -99.01968 | 7379 ft | 8 kts | 49° |
| 2026-04-23 18:11 | 19.73567 | -99.01916 | 7379 ft | 11 kts | 49° |
| 2026-04-23 18:11 | 19.73621 | -99.01850 | 7379 ft | 13 kts | 49° |
| 2026-04-23 18:12 | 19.73684 | -99.01772 | 7379 ft | 15 kts | 49° |
| 2026-04-23 18:12 | 19.73760 | -99.01681 | 7379 ft | 18 kts | 49° |
| 2026-04-23 18:12 | 19.73844 | -99.01577 | 7379 ft | 19 kts | 49° |
| 2026-04-23 18:12 | 19.73925 | -99.01528 | 7379 ft | 13 kts | 337° |
| 2026-04-23 18:13 | 19.73984 | -99.01588 | 7379 ft | 13 kts | 322° |
| 2026-04-23 18:13 | 19.74057 | -99.01655 | 7379 ft | 15 kts | 320° |
| 2026-04-23 18:13 | 19.74138 | -99.01727 | 7379 ft | 16 kts | 320° |
| 2026-04-23 18:13 | 19.74225 | -99.01808 | 7379 ft | 17 kts | 319° |
| 2026-04-23 18:14 | 19.74317 | -99.01892 | 7379 ft | 18 kts | 320° |
| 2026-04-23 18:14 | 19.74418 | -99.01983 | 7379 ft | 19 kts | 319° |
| 2026-04-23 18:14 | 19.74521 | -99.02077 | 7379 ft | 19 kts | 319° |
| 2026-04-23 18:14 | 19.74560 | -99.02159 | 7379 ft | 12 kts | 248° |
| 2026-04-23 18:15 | 19.74506 | -99.02230 | 7379 ft | 13 kts | 230° |
| 2026-04-23 18:15 | 19.74441 | -99.02311 | 7379 ft | 16 kts | 229° |
| 2026-04-23 18:15 | 19.74363 | -99.02405 | 7379 ft | 18 kts | 229° |
| 2026-04-23 18:15 | 19.74275 | -99.02512 | 7379 ft | 20 kts | 229° |
| 2026-04-23 18:16 | 19.74178 | -99.02630 | 7379 ft | 23 kts | 229° |
| 2026-04-23 18:16 | 19.74070 | -99.02763 | 7380 ft | 24 kts | 229° |
| 2026-04-23 18:16 | 19.73959 | -99.02900 | 7379 ft | 24 kts | 229° |
| 2026-04-23 18:17 | 19.73747 | -99.03159 | 7379 ft | 23 kts | 230° |
| 2026-04-23 18:17 | 19.73648 | -99.03283 | 7379 ft | 22 kts | 229° |
| 2026-04-23 18:17 | 19.73550 | -99.03401 | 7379 ft | 21 kts | 229° |
| 2026-04-23 18:17 | 19.73455 | -99.03516 | 7379 ft | 20 kts | 229° |
| 2026-04-23 18:18 | 19.73365 | -99.03627 | 7379 ft | 20 kts | 230° |
| 2026-04-23 18:18 | 19.73277 | -99.03736 | 7379 ft | 19 kts | 231° |
| 2026-04-23 18:18 | 19.73288 | -99.03844 | 7379 ft | 15 kts | 333° |
| 2026-04-23 18:18 | 19.73367 | -99.03910 | 7379 ft | 14 kts | 319° |
| 2026-04-23 18:19 | 19.73449 | -99.03915 | 7378 ft | 15 kts | 43° |
| 2026-04-23 18:19 | 19.73641 | -99.03684 | 7379 ft | 68 kts | 49° |
| 2026-04-23 18:19 | 19.74056 | -99.03178 | 7378 ft | 114 kts | 49° |
| 2026-04-23 18:19 | 19.74671 | -99.02426 | 7378 ft | 156 kts | 49° |
| 2026-04-23 18:20 | 19.75478 | -99.01448 | 7379 ft | 194 kts | 49° |
| 2026-04-23 18:20 | 19.76293 | -99.00482 | 7643 ft | 205 kts | 46° |
| 2026-04-23 18:20 | 19.76363 | -99.00397 | 7705 ft | 205 kts | 47° |
| 2026-04-23 18:20 | 19.77356 | -98.99239 | 8319 ft | 220 kts | 39° |
| 2026-04-23 18:21 | 19.78434 | -98.98094 | 8782 ft | 225 kts | 43° |
| 2026-04-23 18:21 | 19.79550 | -98.96931 | 9543 ft | 214 kts | 45° |
| 2026-04-23 18:21 | 19.80481 | -98.95698 | 10015 ft | 221 kts | 51° |
| 2026-04-23 18:21 | 19.81448 | -98.94371 | 10281 ft | 234 kts | 49° |
| 2026-04-23 18:22 | 19.82484 | -98.92959 | 10481 ft | 250 kts | 56° |
| 2026-04-23 18:22 | 19.83079 | -98.91174 | 10585 ft | 267 kts | 83° |
| 2026-04-23 18:22 | 19.82970 | -98.89163 | 10736 ft | 284 kts | 105° |
| 2026-04-23 18:22 | 19.82137 | -98.87223 | 11111 ft | 290 kts | 125° |
| 2026-04-23 18:23 | 19.81416 | -98.86012 | 11425 ft | 297 kts | 117° |
| 2026-04-23 18:23 | 19.80511 | -98.80699 | 12044 ft | 334 kts | 98° |
| 2026-04-23 18:24 | 19.79863 | -98.75639 | 12778 ft | 353 kts | 98° |
| 2026-04-23 18:24 | 19.79522 | -98.73047 | 13415 ft | 354 kts | 98° |
| 2026-04-23 18:24 | 19.79175 | -98.70432 | 13717 ft | 358 kts | 98° |
| 2026-04-23 18:25 | 19.78385 | -98.65222 | 13858 ft | 359 kts | 109° |
| 2026-04-23 18:25 | 19.77232 | -98.62902 | 14591 ft | 355 kts | 125° |
| 2026-04-23 18:25 | 19.75778 | -98.60749 | 15015 ft | 364 kts | 126° |
| 2026-04-23 18:25 | 19.74252 | -98.58548 | 15417 ft | 372 kts | 126° |
| 2026-04-23 18:26 | 19.72704 | -98.56347 | 16040 ft | 373 kts | 127° |
| 2026-04-23 18:26 | 19.71131 | -98.54136 | 16547 ft | 377 kts | 127° |
| 2026-04-23 18:26 | 19.69538 | -98.51909 | 17060 ft | 381 kts | 127° |
| 2026-04-23 18:26 | 19.67926 | -98.49661 | 17595 ft | 384 kts | 127° |
| 2026-04-23 18:27 | 19.66297 | -98.47392 | 18104 ft | 388 kts | 127° |
| 2026-04-23 18:27 | 19.64654 | -98.45105 | 18574 ft | 391 kts | 127° |
| 2026-04-23 18:27 | 19.63005 | -98.42788 | 19011 ft | 393 kts | 123° |
| 2026-04-23 18:27 | 19.61824 | -98.40223 | 19421 ft | 393 kts | 104° |
| 2026-04-23 18:28 | 19.61393 | -98.37366 | 19839 ft | 394 kts | 91° |
| 2026-04-23 18:28 | 19.61241 | -98.34447 | 20209 ft | 397 kts | 91° |
| 2026-04-23 18:28 | 19.61120 | -98.31510 | 20644 ft | 400 kts | 90° |
| 2026-04-23 18:28 | 19.61017 | -98.28549 | 21024 ft | 403 kts | 90° |
| 2026-04-23 18:29 | 19.60926 | -98.25563 | 21442 ft | 406 kts | 89° |
| 2026-04-23 18:29 | 19.60841 | -98.22557 | 21874 ft | 408 kts | 89° |
| 2026-04-23 18:29 | 19.60758 | -98.19578 | 22259 ft | 411 kts | 89° |
| 2026-04-23 18:29 | 19.60674 | -98.16531 | 22679 ft | 414 kts | 89° |
| 2026-04-23 18:30 | 19.60589 | -98.13469 | 23059 ft | 417 kts | 89° |
| 2026-04-23 18:30 | 19.60503 | -98.10381 | 23444 ft | 420 kts | 89° |
| 2026-04-23 18:30 | 19.60416 | -98.07277 | 23799 ft | 423 kts | 89° |
| 2026-04-23 18:30 | 19.60327 | -98.04143 | 24148 ft | 425 kts | 89° |
| 2026-04-23 18:31 | 19.60480 | -98.01024 | 24459 ft | 423 kts | 74° |
| 2026-04-23 18:31 | 19.61359 | -97.98080 | 24830 ft | 419 kts | 66° |
| 2026-04-23 18:31 | 19.62352 | -97.95188 | 25081 ft | 424 kts | 66° |
| 2026-04-23 18:31 | 19.63388 | -97.92252 | 25460 ft | 425 kts | 65° |
| 2026-04-23 18:32 | 19.64446 | -97.89305 | 25812 ft | 428 kts | 65° |
| 2026-04-23 18:32 | 19.65520 | -97.86343 | 26116 ft | 430 kts | 65° |
| 2026-04-23 18:32 | 19.66600 | -97.83377 | 26444 ft | 433 kts | 65° |
| 2026-04-23 18:32 | 19.67689 | -97.80391 | 26770 ft | 435 kts | 65° |
| 2026-04-23 18:33 | 19.68782 | -97.77390 | 27094 ft | 437 kts | 65° |
| 2026-04-23 18:33 | 19.69881 | -97.74372 | 27357 ft | 439 kts | 65° |
| 2026-04-23 18:33 | 19.70983 | -97.71344 | 27644 ft | 442 kts | 65° |
| 2026-04-23 18:33 | 19.72091 | -97.68299 | 27959 ft | 444 kts | 65° |
| 2026-04-23 18:34 | 19.73211 | -97.65220 | 28256 ft | 446 kts | 65° |
| 2026-04-23 18:34 | 19.74331 | -97.62140 | 28542 ft | 449 kts | 65° |
| 2026-04-23 18:34 | 19.75457 | -97.59038 | 28803 ft | 451 kts | 65° |
| 2026-04-23 18:34 | 19.76587 | -97.55924 | 29114 ft | 453 kts | 65° |
| 2026-04-23 18:35 | 19.77723 | -97.52791 | 29389 ft | 456 kts | 65° |
| 2026-04-23 18:35 | 19.78868 | -97.49632 | 29685 ft | 458 kts | 65° |
| 2026-04-23 18:35 | 19.79995 | -97.46518 | 29976 ft | 460 kts | 65° |
| 2026-04-23 18:35 | 19.81151 | -97.43328 | 30199 ft | 463 kts | 65° |
| 2026-04-23 18:36 | 19.82307 | -97.40132 | 30463 ft | 464 kts | 65° |
| 2026-04-23 18:36 | 19.83462 | -97.36938 | 30714 ft | 465 kts | 65° |
| 2026-04-23 18:36 | 19.84629 | -97.33710 | 30972 ft | 467 kts | 65° |
| 2026-04-23 18:36 | 19.85792 | -97.30491 | 31211 ft | 468 kts | 65° |
| 2026-04-23 18:37 | 19.86959 | -97.27257 | 31451 ft | 470 kts | 65° |
| 2026-04-23 18:37 | 19.88134 | -97.24002 | 31702 ft | 471 kts | 65° |
| 2026-04-23 18:37 | 19.89306 | -97.20750 | 31950 ft | 473 kts | 65° |
| 2026-04-23 18:37 | 19.90486 | -97.17476 | 32185 ft | 474 kts | 65° |
| 2026-04-23 18:38 | 19.91669 | -97.14192 | 32424 ft | 476 kts | 65° |
| 2026-04-23 18:38 | 19.92836 | -97.10947 | 32734 ft | 475 kts | 65° |
| 2026-04-23 18:38 | 19.94031 | -97.07624 | 33087 ft | 474 kts | 65° |
| 2026-04-23 18:38 | 19.95189 | -97.04402 | 33427 ft | 472 kts | 65° |
| 2026-04-23 18:39 | 19.96358 | -97.01147 | 33779 ft | 471 kts | 64° |
| 2026-04-23 18:39 | 19.97527 | -96.97890 | 34102 ft | 470 kts | 64° |
| 2026-04-23 18:39 | 19.98686 | -96.94658 | 34374 ft | 469 kts | 65° |
| 2026-04-23 18:39 | 19.99470 | -96.92470 | 34529 ft | 469 kts | 65° |
| 2026-04-23 18:40 | 20.01010 | -96.88172 | 34805 ft | 470 kts | 65° |
| 2026-04-23 18:40 | 20.02171 | -96.84929 | 34889 ft | 470 kts | 65° |
| 2026-04-23 18:41 | 20.07532 | -96.69412 | 34867 ft | 473 kts | 76° |
| 2026-04-23 18:42 | 20.08118 | -96.62389 | 34883 ft | 478 kts | 81° |
| 2026-04-23 18:42 | 20.08755 | -96.55332 | 34883 ft | 479 kts | 81° |
| 2026-04-23 18:43 | 20.09400 | -96.48294 | 34880 ft | 479 kts | 81° |
| 2026-04-23 18:43 | 20.10041 | -96.41262 | 34883 ft | 479 kts | 81° |
| 2026-04-23 18:44 | 20.10684 | -96.34189 | 34882 ft | 480 kts | 81° |
| 2026-04-23 18:44 | 20.11322 | -96.27136 | 34880 ft | 480 kts | 81° |
| 2026-04-23 18:45 | 20.11961 | -96.20040 | 34883 ft | 480 kts | 81° |
| 2026-04-23 18:45 | 20.12591 | -96.13008 | 34887 ft | 481 kts | 81° |
| 2026-04-23 18:46 | 20.13222 | -96.05932 | 34882 ft | 481 kts | 81° |
| 2026-04-23 18:46 | 20.13852 | -95.98840 | 34889 ft | 481 kts | 81° |
| 2026-04-23 18:47 | 20.14481 | -95.91736 | 34890 ft | 482 kts | 81° |
| 2026-04-23 18:47 | 20.15107 | -95.84620 | 34896 ft | 482 kts | 81° |
| 2026-04-23 18:48 | 20.15727 | -95.77536 | 34893 ft | 482 kts | 81° |
| 2026-04-23 18:48 | 20.16345 | -95.70461 | 34888 ft | 482 kts | 81° |
| 2026-04-23 18:49 | 20.16962 | -95.63344 | 34898 ft | 483 kts | 81° |
| 2026-04-23 18:49 | 20.17577 | -95.56226 | 34896 ft | 483 kts | 81° |
| 2026-04-23 18:50 | 20.18090 | -95.50264 | 34895 ft | 483 kts | 81° |
| 2026-04-23 18:50 | 20.18798 | -95.41988 | 34900 ft | 483 kts | 81° |
| 2026-04-23 18:51 | 20.19406 | -95.34848 | 34900 ft | 484 kts | 81° |
| 2026-04-23 18:51 | 20.20012 | -95.27702 | 34904 ft | 484 kts | 81° |
| 2026-04-23 18:52 | 20.20613 | -95.20573 | 34904 ft | 484 kts | 81° |
| 2026-04-23 18:52 | 20.21213 | -95.13426 | 34904 ft | 484 kts | 81° |
| 2026-04-23 18:53 | 20.21806 | -95.06324 | 34906 ft | 485 kts | 81° |
| 2026-04-23 18:53 | 20.22400 | -94.99174 | 34900 ft | 485 kts | 81° |
| 2026-04-23 18:54 | 20.22992 | -94.92011 | 34902 ft | 485 kts | 81° |
| 2026-04-23 18:54 | 20.23580 | -94.84863 | 34906 ft | 485 kts | 81° |
| 2026-04-23 18:55 | 20.24168 | -94.77694 | 34900 ft | 485 kts | 81° |
| 2026-04-23 18:55 | 20.24751 | -94.70528 | 34907 ft | 485 kts | 81° |
| 2026-04-23 18:56 | 20.25233 | -94.64591 | 34903 ft | 485 kts | 81° |
| 2026-04-23 18:56 | 20.25908 | -94.56211 | 34904 ft | 486 kts | 81° |
| 2026-04-23 18:57 | 20.26485 | -94.49030 | 34900 ft | 486 kts | 81° |
| 2026-04-23 18:57 | 20.27054 | -94.41897 | 34902 ft | 486 kts | 81° |
| 2026-04-23 18:58 | 20.27623 | -94.34721 | 34905 ft | 486 kts | 81° |
| 2026-04-23 18:58 | 20.28191 | -94.27542 | 34905 ft | 487 kts | 81° |
| 2026-04-23 18:59 | 20.28756 | -94.20345 | 34904 ft | 487 kts | 81° |
| 2026-04-23 18:59 | 20.29318 | -94.13161 | 34899 ft | 487 kts | 81° |
| 2026-04-23 19:00 | 20.29878 | -94.05955 | 34897 ft | 488 kts | 81° |
| 2026-04-23 19:00 | 20.30435 | -93.98752 | 34903 ft | 488 kts | 81° |
| 2026-04-23 19:01 | 20.30987 | -93.91570 | 34900 ft | 489 kts | 81° |
| 2026-04-23 19:01 | 20.31539 | -93.84360 | 34902 ft | 489 kts | 81° |
| 2026-04-23 19:02 | 20.31997 | -93.78338 | 34902 ft | 489 kts | 82° |
| 2026-04-23 19:02 | 20.32637 | -93.69885 | 34899 ft | 490 kts | 82° |
| 2026-04-23 19:03 | 20.33183 | -93.62638 | 34908 ft | 490 kts | 82° |
| 2026-04-23 19:03 | 20.33722 | -93.55431 | 34913 ft | 491 kts | 82° |
| 2026-04-23 19:04 | 20.34261 | -93.48188 | 34910 ft | 491 kts | 82° |
| 2026-04-23 19:04 | 20.34798 | -93.40926 | 34910 ft | 491 kts | 82° |
| 2026-04-23 19:05 | 20.35331 | -93.33679 | 34912 ft | 491 kts | 82° |
| 2026-04-23 19:05 | 20.35864 | -93.26398 | 34909 ft | 492 kts | 82° |
| 2026-04-23 19:06 | 20.36393 | -93.19125 | 34909 ft | 492 kts | 82° |
| 2026-04-23 19:06 | 20.36917 | -93.11885 | 34910 ft | 492 kts | 82° |
| 2026-04-23 19:07 | 20.37440 | -93.04604 | 34910 ft | 493 kts | 82° |
| 2026-04-23 19:07 | 20.37962 | -92.97309 | 34913 ft | 493 kts | 82° |
| 2026-04-23 19:08 | 20.38480 | -92.90013 | 34914 ft | 493 kts | 82° |
| 2026-04-23 19:08 | 20.38992 | -92.82765 | 34909 ft | 494 kts | 82° |
| 2026-04-23 19:09 | 20.39505 | -92.75456 | 34913 ft | 494 kts | 82° |
| 2026-04-23 19:09 | 20.40015 | -92.68159 | 34910 ft | 494 kts | 82° |
| 2026-04-23 19:10 | 20.40523 | -92.60845 | 34914 ft | 494 kts | 82° |
| 2026-04-23 19:10 | 20.41028 | -92.53525 | 34915 ft | 495 kts | 82° |
| 2026-04-23 19:11 | 20.41527 | -92.46242 | 34914 ft | 495 kts | 82° |
| 2026-04-23 19:11 | 20.42026 | -92.38919 | 34915 ft | 495 kts | 82° |
| 2026-04-23 19:12 | 20.42438 | -92.32829 | 34917 ft | 495 kts | 82° |
| 2026-04-23 19:12 | 20.43015 | -92.24256 | 34916 ft | 495 kts | 83° |
| 2026-04-23 19:13 | 20.43505 | -92.16931 | 34918 ft | 496 kts | 82° |
| 2026-04-23 19:13 | 20.43993 | -92.09586 | 34915 ft | 496 kts | 83° |
| 2026-04-23 19:14 | 20.44473 | -92.02308 | 34921 ft | 496 kts | 83° |
| 2026-04-23 19:14 | 20.44955 | -91.94966 | 34922 ft | 496 kts | 83° |
| 2026-04-23 19:15 | 20.45433 | -91.87619 | 34920 ft | 497 kts | 83° |
| 2026-04-23 19:15 | 20.45830 | -91.81503 | 34918 ft | 497 kts | 83° |
| 2026-04-23 19:16 | 20.46304 | -91.74141 | 34922 ft | 497 kts | 83° |
| 2026-04-23 19:16 | 20.46775 | -91.66775 | 34918 ft | 498 kts | 83° |
| 2026-04-23 19:17 | 20.47477 | -91.55714 | 34922 ft | 498 kts | 83° |
| 2026-04-23 19:17 | 20.47941 | -91.48332 | 34924 ft | 499 kts | 83° |
| 2026-04-23 19:18 | 20.48399 | -91.40994 | 34916 ft | 499 kts | 83° |
| 2026-04-23 19:18 | 20.48858 | -91.33601 | 34922 ft | 499 kts | 83° |
| 2026-04-23 19:19 | 20.49541 | -91.22497 | 34920 ft | 500 kts | 83° |
| 2026-04-23 19:20 | 20.50218 | -91.11373 | 34919 ft | 500 kts | 83° |
| 2026-04-23 19:20 | 20.50662 | -91.04008 | 34918 ft | 500 kts | 83° |
| 2026-04-23 19:21 | 20.51327 | -90.92892 | 34911 ft | 501 kts | 83° |
| 2026-04-23 19:22 | 20.51767 | -90.85469 | 34911 ft | 501 kts | 83° |
| 2026-04-23 19:22 | 20.52423 | -90.74312 | 34910 ft | 501 kts | 83° |
| 2026-04-23 19:23 | 20.52852 | -90.66925 | 34911 ft | 502 kts | 83° |
| 2026-04-23 19:24 | 20.53495 | -90.55776 | 34907 ft | 502 kts | 83° |
| 2026-04-23 19:24 | 20.54131 | -90.44629 | 34909 ft | 502 kts | 83° |
| 2026-04-23 19:25 | 20.54969 | -90.29732 | 34909 ft | 502 kts | 84° |
| 2026-04-23 19:26 | 20.55589 | -90.18572 | 34905 ft | 502 kts | 84° |
| 2026-04-23 19:27 | 20.56604 | -89.99999 | 34909 ft | 502 kts | 84° |
| 2026-04-23 19:28 | 20.57404 | -89.85097 | 34913 ft | 503 kts | 84° |
| 2026-04-23 19:29 | 20.57993 | -89.73966 | 34912 ft | 503 kts | 84° |
| 2026-04-23 19:30 | 20.58578 | -89.62785 | 34914 ft | 503 kts | 84° |
| 2026-04-23 19:31 | 20.59156 | -89.51592 | 34914 ft | 504 kts | 84° |
| 2026-04-23 19:31 | 20.59538 | -89.44120 | 34918 ft | 504 kts | 84° |
| 2026-04-23 19:32 | 20.59917 | -89.36627 | 34912 ft | 504 kts | 84° |
| 2026-04-23 19:32 | 20.60293 | -89.29160 | 34912 ft | 504 kts | 84° |
| 2026-04-23 19:33 | 20.60665 | -89.21678 | 34914 ft | 505 kts | 84° |
| 2026-04-23 19:33 | 20.61216 | -89.10501 | 34914 ft | 505 kts | 84° |
| 2026-04-23 19:34 | 20.61581 | -89.03003 | 34917 ft | 505 kts | 84° |
| 2026-04-23 19:35 | 20.62124 | -88.91734 | 34918 ft | 506 kts | 84° |
| 2026-04-23 19:35 | 20.62482 | -88.84224 | 34918 ft | 506 kts | 84° |
| 2026-04-23 19:36 | 20.62834 | -88.76756 | 34917 ft | 507 kts | 84° |
| 2026-04-23 19:36 | 20.63186 | -88.69224 | 34917 ft | 507 kts | 84° |
| 2026-04-23 19:37 | 20.63536 | -88.61688 | 34916 ft | 508 kts | 84° |